Raymond, Arkansas
Current Conditions -  °F | °C
As of 4:15 AM on Thursday 29 Jan 2015 (Local Time) from KSGT Reporting Station
Clear Clear  
Wind Chill: 55°   Ceiling: Unl
Heat Index: 55°   Visibility: 10mi
Dew Point: 43°   Wind: 14mph
Humidity: 63%   Direction: 210°SSW
Pressure: 30.03"   Gusts: NA
Location:  34.5919°N, 91.1409°W
Report Text: KSGT 291015Z AUTO 21012KT 10SM CLR 13/06 A3003 RMK AO1
Loading
Personal Weather Stations






























Interactive Weather Map New forecast layout! Learn more

10-Day Weather Forecast

Advertisements
Track Severe Weather on mobile